sensor_id;sensor_type;location;lat;lon;timestamp;temperature;humidity
35804;DHT22;21924;51.934;7.414;2022-12-18T00:01:59;-7.00;99.90
35804;DHT22;21924;51.934;7.414;2022-12-18T00:04:43;-7.00;99.90
35804;DHT22;21924;51.934;7.414;2022-12-18T00:07:28;-7.00;99.90
35804;DHT22;21924;51.934;7.414;2022-12-18T00:10:12;-7.00;99.90
35804;DHT22;21924;51.934;7.414;2022-12-18T00:12:56;-7.00;99.90
35804;DHT22;21924;51.934;7.414;2022-12-18T00:15:40;-7.00;99.90
35804;DHT22;21924;51.934;7.414;2022-12-18T00:18:25;-7.00;99.90
35804;DHT22;21924;51.934;7.414;2022-12-18T00:21:10;-7.00;99.90
35804;DHT22;21924;51.934;7.414;2022-12-18T00:23:55;-7.00;99.90
35804;DHT22;21924;51.934;7.414;2022-12-18T00:26:39;-7.00;99.90
35804;DHT22;21924;51.934;7.414;2022-12-18T00:29:23;-7.00;99.90
35804;DHT22;21924;51.934;7.414;2022-12-18T00:32:08;-7.00;99.90
35804;DHT22;21924;51.934;7.414;2022-12-18T00:34:52;-7.00;99.90
35804;DHT22;21924;51.934;7.414;2022-12-18T00:37:36;-7.00;99.90
35804;DHT22;21924;51.934;7.414;2022-12-18T00:40:21;-7.00;99.90
35804;DHT22;21924;51.934;7.414;2022-12-18T00:43:05;-7.00;99.90
35804;DHT22;21924;51.934;7.414;2022-12-18T00:45:49;-7.00;99.90
35804;DHT22;21924;51.934;7.414;2022-12-18T00:48:33;-7.00;99.90
35804;DHT22;21924;51.934;7.414;2022-12-18T00:51:17;-7.00;99.90
35804;DHT22;21924;51.934;7.414;2022-12-18T00:54:02;-7.00;99.90
35804;DHT22;21924;51.934;7.414;2022-12-18T00:56:46;-7.00;99.90
35804;DHT22;21924;51.934;7.414;2022-12-18T00:59:30;-6.90;99.90
35804;DHT22;21924;51.934;7.414;2022-12-18T01:02:14;-6.80;99.90
35804;DHT22;21924;51.934;7.414;2022-12-18T01:04:59;-6.80;99.90
35804;DHT22;21924;51.934;7.414;2022-12-18T01:07:43;-6.80;99.90
35804;DHT22;21924;51.934;7.414;2022-12-18T01:10:28;-6.90;99.90
35804;DHT22;21924;51.934;7.414;2022-12-18T01:13:12;-6.90;99.90
35804;DHT22;21924;51.934;7.414;2022-12-18T01:15:56;-6.90;99.90
35804;DHT22;21924;51.934;7.414;2022-12-18T01:18:41;-7.00;99.90
35804;DHT22;21924;51.934;7.414;2022-12-18T01:21:25;-7.00;99.90
35804;DHT22;21924;51.934;7.414;2022-12-18T01:24:10;-7.00;99.90
35804;DHT22;21924;51.934;7.414;2022-12-18T01:26:55;-7.00;99.90
35804;DHT22;21924;51.934;7.414;2022-12-18T01:29:41;-6.90;99.90
35804;DHT22;21924;51.934;7.414;2022-12-18T01:32:25;-6.80;99.90
35804;DHT22;21924;51.934;7.414;2022-12-18T01:35:09;-6.90;99.90
35804;DHT22;21924;51.934;7.414;2022-12-18T01:37:54;-6.90;99.90
35804;DHT22;21924;51.934;7.414;2022-12-18T01:40:39;-6.90;99.90
35804;DHT22;21924;51.934;7.414;2022-12-18T01:43:45;-6.90;99.90
35804;DHT22;21924;51.934;7.414;2022-12-18T01:46:29;-6.90;99.90
35804;DHT22;21924;51.934;7.414;2022-12-18T01:49:13;-6.90;99.90
35804;DHT22;21924;51.934;7.414;2022-12-18T01:51:58;-6.90;99.90
35804;DHT22;21924;51.934;7.414;2022-12-18T01:54:43;-6.80;99.90
35804;DHT22;21924;51.934;7.414;2022-12-18T01:57:28;-6.90;99.90
35804;DHT22;21924;51.934;7.414;2022-12-18T02:00:17;-6.90;99.90
35804;DHT22;21924;51.934;7.414;2022-12-18T02:03:02;-7.00;99.90
35804;DHT22;21924;51.934;7.414;2022-12-18T02:05:55;-6.90;99.90
35804;DHT22;21924;51.934;7.414;2022-12-18T02:09:11;-6.90;99.90
35804;DHT22;21924;51.934;7.414;2022-12-18T02:12:10;-6.90;99.90
35804;DHT22;21924;51.934;7.414;2022-12-18T02:15:10;-6.80;99.90
35804;DHT22;21924;51.934;7.414;2022-12-18T02:18:01;-6.90;99.90
35804;DHT22;21924;51.934;7.414;2022-12-18T02:21:04;-6.90;99.90
35804;DHT22;21924;51.934;7.414;2022-12-18T02:27:03;-6.90;99.90
35804;DHT22;21924;51.934;7.414;2022-12-18T02:29:53;-6.90;99.90
35804;DHT22;21924;51.934;7.414;2022-12-18T02:32:42;-6.60;99.90
35804;DHT22;21924;51.934;7.414;2022-12-18T02:35:29;-6.60;99.90
35804;DHT22;21924;51.934;7.414;2022-12-18T02:38:15;-6.60;99.90
35804;DHT22;21924;51.934;7.414;2022-12-18T02:41:00;-6.70;99.90
35804;DHT22;21924;51.934;7.414;2022-12-18T02:43:47;-6.70;99.90
35804;DHT22;21924;51.934;7.414;2022-12-18T02:46:36;-6.80;99.90
35804;DHT22;21924;51.934;7.414;2022-12-18T02:58:18;-6.40;99.90
35804;DHT22;21924;51.934;7.414;2022-12-18T03:01:19;-6.40;99.90
35804;DHT22;21924;51.934;7.414;2022-12-18T03:04:17;-6.20;99.90
35804;DHT22;21924;51.934;7.414;2022-12-18T03:07:05;-6.20;99.90
35804;DHT22;21924;51.934;7.414;2022-12-18T03:09:54;-6.20;99.90
35804;DHT22;21924;51.934;7.414;2022-12-18T03:12:43;-6.20;99.90
35804;DHT22;21924;51.934;7.414;2022-12-18T03:15:31;-6.30;99.90
35804;DHT22;21924;51.934;7.414;2022-12-18T03:18:23;-6.30;99.90
35804;DHT22;21924;51.934;7.414;2022-12-18T03:21:10;-6.20;99.90
35804;DHT22;21924;51.934;7.414;2022-12-18T03:23:56;-6.20;99.90
35804;DHT22;21924;51.934;7.414;2022-12-18T03:26:44;-6.10;99.90
35804;DHT22;21924;51.934;7.414;2022-12-18T03:29:36;-6.00;99.90
35804;DHT22;21924;51.934;7.414;2022-12-18T03:32:31;-6.00;99.90
35804;DHT22;21924;51.934;7.414;2022-12-18T03:35:21;-6.00;99.90
35804;DHT22;21924;51.934;7.414;2022-12-18T03:38:07;-6.20;99.90
35804;DHT22;21924;51.934;7.414;2022-12-18T03:44:19;-6.30;99.90
35804;DHT22;21924;51.934;7.414;2022-12-18T03:47:24;-6.30;99.90
35804;DHT22;21924;51.934;7.414;2022-12-18T03:50:17;-6.30;99.90
35804;DHT22;21924;51.934;7.414;2022-12-18T03:53:17;-6.10;99.90
35804;DHT22;21924;51.934;7.414;2022-12-18T03:56:03;-6.00;99.90
35804;DHT22;21924;51.934;7.414;2022-12-18T03:58:48;-5.90;99.90
35804;DHT22;21924;51.934;7.414;2022-12-18T04:01:40;-5.80;99.90
35804;DHT22;21924;51.934;7.414;2022-12-18T04:04:27;-5.80;99.90
35804;DHT22;21924;51.934;7.414;2022-12-18T04:07:13;-5.90;99.90
35804;DHT22;21924;51.934;7.414;2022-12-18T04:09:58;-5.90;99.90
35804;DHT22;21924;51.934;7.414;2022-12-18T04:12:44;-6.00;99.90
35804;DHT22;21924;51.934;7.414;2022-12-18T04:15:28;-5.90;99.90
35804;DHT22;21924;51.934;7.414;2022-12-18T04:18:13;-5.90;99.90
35804;DHT22;21924;51.934;7.414;2022-12-18T04:20:57;-5.90;99.90
35804;DHT22;21924;51.934;7.414;2022-12-18T04:23:41;-5.90;99.90
35804;DHT22;21924;51.934;7.414;2022-12-18T04:26:25;-5.90;99.90
35804;DHT22;21924;51.934;7.414;2022-12-18T04:29:09;-5.80;99.90
35804;DHT22;21924;51.934;7.414;2022-12-18T04:31:54;-5.80;99.90
35804;DHT22;21924;51.934;7.414;2022-12-18T04:34:38;-5.80;99.90
35804;DHT22;21924;51.934;7.414;2022-12-18T04:37:23;-5.70;99.90
35804;DHT22;21924;51.934;7.414;2022-12-18T04:40:07;-5.70;99.90
35804;DHT22;21924;51.934;7.414;2022-12-18T04:42:52;-5.70;99.90
35804;DHT22;21924;51.934;7.414;2022-12-18T04:45:36;-5.70;99.90
35804;DHT22;21924;51.934;7.414;2022-12-18T04:48:21;-5.70;99.90
35804;DHT22;21924;51.934;7.414;2022-12-18T04:51:05;-5.70;99.90
35804;DHT22;21924;51.934;7.414;2022-12-18T04:53:50;-5.70;99.90
35804;DHT22;21924;51.934;7.414;2022-12-18T04:56:35;-5.70;99.90
35804;DHT22;21924;51.934;7.414;2022-12-18T04:59:19;-5.70;99.90
35804;DHT22;21924;51.934;7.414;2022-12-18T05:02:03;-5.70;99.90
35804;DHT22;21924;51.934;7.414;2022-12-18T05:04:47;-5.70;99.90
35804;DHT22;21924;51.934;7.414;2022-12-18T05:07:32;-5.70;99.90
35804;DHT22;21924;51.934;7.414;2022-12-18T05:10:16;-5.60;99.90
35804;DHT22;21924;51.934;7.414;2022-12-18T05:13:00;-5.60;99.90
35804;DHT22;21924;51.934;7.414;2022-12-18T05:15:51;-5.60;99.90
35804;DHT22;21924;51.934;7.414;2022-12-18T05:18:37;-5.60;99.90
35804;DHT22;21924;51.934;7.414;2022-12-18T05:21:21;-5.60;99.90
35804;DHT22;21924;51.934;7.414;2022-12-18T05:24:05;-5.60;99.90
35804;DHT22;21924;51.934;7.414;2022-12-18T05:26:50;-5.60;99.90
35804;DHT22;21924;51.934;7.414;2022-12-18T05:29:34;-5.50;99.90
35804;DHT22;21924;51.934;7.414;2022-12-18T05:32:18;-5.50;99.90
35804;DHT22;21924;51.934;7.414;2022-12-18T05:35:03;-5.50;99.90
35804;DHT22;21924;51.934;7.414;2022-12-18T05:37:48;-5.50;99.90
35804;DHT22;21924;51.934;7.414;2022-12-18T05:40:32;-5.30;99.90
35804;DHT22;21924;51.934;7.414;2022-12-18T05:43:17;-5.40;99.90
35804;DHT22;21924;51.934;7.414;2022-12-18T05:46:12;-5.30;99.90
35804;DHT22;21924;51.934;7.414;2022-12-18T05:48:59;-5.20;99.90
35804;DHT22;21924;51.934;7.414;2022-12-18T05:51:45;-5.20;99.90
35804;DHT22;21924;51.934;7.414;2022-12-18T05:54:29;-5.10;99.90
35804;DHT22;21924;51.934;7.414;2022-12-18T05:57:14;-5.20;99.90
35804;DHT22;21924;51.934;7.414;2022-12-18T05:59:59;-5.20;99.90
35804;DHT22;21924;51.934;7.414;2022-12-18T06:02:46;-5.10;99.90
35804;DHT22;21924;51.934;7.414;2022-12-18T06:05:35;-5.00;99.90
35804;DHT22;21924;51.934;7.414;2022-12-18T06:08:19;-5.00;99.90
35804;DHT22;21924;51.934;7.414;2022-12-18T06:11:03;-4.90;99.90
35804;DHT22;21924;51.934;7.414;2022-12-18T06:13:52;-4.90;99.90
35804;DHT22;21924;51.934;7.414;2022-12-18T06:16:36;-4.90;99.90
35804;DHT22;21924;51.934;7.414;2022-12-18T06:19:21;-4.90;99.90
35804;DHT22;21924;51.934;7.414;2022-12-18T06:22:05;-4.90;99.90
35804;DHT22;21924;51.934;7.414;2022-12-18T06:24:49;-4.90;99.90
35804;DHT22;21924;51.934;7.414;2022-12-18T06:27:34;-4.90;99.90
35804;DHT22;21924;51.934;7.414;2022-12-18T06:30:18;-4.80;99.90
35804;DHT22;21924;51.934;7.414;2022-12-18T06:33:02;-4.80;99.90
35804;DHT22;21924;51.934;7.414;2022-12-18T06:35:47;-4.80;99.90
35804;DHT22;21924;51.934;7.414;2022-12-18T06:38:32;-4.70;99.90
35804;DHT22;21924;51.934;7.414;2022-12-18T06:41:19;-4.70;99.90
35804;DHT22;21924;51.934;7.414;2022-12-18T06:44:03;-4.70;99.90
35804;DHT22;21924;51.934;7.414;2022-12-18T06:46:48;-4.70;99.90
35804;DHT22;21924;51.934;7.414;2022-12-18T06:49:32;-4.60;99.90
35804;DHT22;21924;51.934;7.414;2022-12-18T06:52:16;-4.70;99.90
35804;DHT22;21924;51.934;7.414;2022-12-18T06:55:00;-4.70;99.90
35804;DHT22;21924;51.934;7.414;2022-12-18T06:57:44;-4.70;99.90
35804;DHT22;21924;51.934;7.414;2022-12-18T07:00:29;-4.60;99.90
35804;DHT22;21924;51.934;7.414;2022-12-18T07:03:13;-4.60;99.90
35804;DHT22;21924;51.934;7.414;2022-12-18T07:05:57;-4.60;99.90
35804;DHT22;21924;51.934;7.414;2022-12-18T07:08:41;-4.60;99.90
35804;DHT22;21924;51.934;7.414;2022-12-18T07:11:26;-4.60;99.90
35804;DHT22;21924;51.934;7.414;2022-12-18T07:14:10;-4.60;99.90
35804;DHT22;21924;51.934;7.414;2022-12-18T07:16:54;-4.60;99.90
35804;DHT22;21924;51.934;7.414;2022-12-18T07:19:38;-4.60;99.90
35804;DHT22;21924;51.934;7.414;2022-12-18T07:22:25;-4.60;99.90
35804;DHT22;21924;51.934;7.414;2022-12-18T07:25:09;-4.50;99.90
35804;DHT22;21924;51.934;7.414;2022-12-18T07:27:54;-4.40;99.90
35804;DHT22;21924;51.934;7.414;2022-12-18T07:30:38;-4.40;99.90
35804;DHT22;21924;51.934;7.414;2022-12-18T07:33:23;-4.40;99.90
35804;DHT22;21924;51.934;7.414;2022-12-18T07:36:07;-4.40;99.90
35804;DHT22;21924;51.934;7.414;2022-12-18T07:38:53;-4.40;99.90
35804;DHT22;21924;51.934;7.414;2022-12-18T07:41:37;-4.30;99.90
35804;DHT22;21924;51.934;7.414;2022-12-18T07:44:22;-4.40;99.90
35804;DHT22;21924;51.934;7.414;2022-12-18T07:47:06;-4.30;99.90
35804;DHT22;21924;51.934;7.414;2022-12-18T07:49:50;-4.10;99.90
35804;DHT22;21924;51.934;7.414;2022-12-18T07:52:34;-4.20;99.90
35804;DHT22;21924;51.934;7.414;2022-12-18T07:55:18;-4.20;99.90
35804;DHT22;21924;51.934;7.414;2022-12-18T07:58:03;-4.40;99.90
35804;DHT22;21924;51.934;7.414;2022-12-18T08:00:47;-4.30;99.90
35804;DHT22;21924;51.934;7.414;2022-12-18T08:03:32;-4.30;99.90
35804;DHT22;21924;51.934;7.414;2022-12-18T08:06:17;-4.30;99.90
35804;DHT22;21924;51.934;7.414;2022-12-18T08:09:01;-4.30;99.90
35804;DHT22;21924;51.934;7.414;2022-12-18T08:11:45;-4.30;99.90
35804;DHT22;21924;51.934;7.414;2022-12-18T08:14:29;-4.30;99.90
35804;DHT22;21924;51.934;7.414;2022-12-18T08:17:14;-4.30;99.90
35804;DHT22;21924;51.934;7.414;2022-12-18T08:19:58;-4.40;99.90
35804;DHT22;21924;51.934;7.414;2022-12-18T08:22:42;-4.40;99.90
35804;DHT22;21924;51.934;7.414;2022-12-18T08:25:26;-4.40;99.90
35804;DHT22;21924;51.934;7.414;2022-12-18T08:28:11;-4.40;99.90
35804;DHT22;21924;51.934;7.414;2022-12-18T08:30:55;-4.30;99.90
35804;DHT22;21924;51.934;7.414;2022-12-18T08:33:40;-4.30;99.90
35804;DHT22;21924;51.934;7.414;2022-12-18T08:36:25;-4.20;99.90
35804;DHT22;21924;51.934;7.414;2022-12-18T08:39:09;-4.20;99.90
35804;DHT22;21924;51.934;7.414;2022-12-18T08:41:54;-4.20;99.90
35804;DHT22;21924;51.934;7.414;2022-12-18T08:44:57;-4.10;99.90
35804;DHT22;21924;51.934;7.414;2022-12-18T08:47:41;-4.20;99.90
35804;DHT22;21924;51.934;7.414;2022-12-18T08:50:26;-4.20;99.90
35804;DHT22;21924;51.934;7.414;2022-12-18T08:53:10;-4.00;99.90
35804;DHT22;21924;51.934;7.414;2022-12-18T08:55:56;-4.00;99.90
35804;DHT22;21924;51.934;7.414;2022-12-18T08:58:41;-4.00;99.90
35804;DHT22;21924;51.934;7.414;2022-12-18T09:01:25;-4.00;99.90
35804;DHT22;21924;51.934;7.414;2022-12-18T09:04:09;-3.90;99.90
35804;DHT22;21924;51.934;7.414;2022-12-18T09:06:53;-3.80;99.90
35804;DHT22;21924;51.934;7.414;2022-12-18T09:09:39;-3.80;99.90
35804;DHT22;21924;51.934;7.414;2022-12-18T09:12:23;-3.80;99.90
35804;DHT22;21924;51.934;7.414;2022-12-18T09:15:08;-3.90;99.90
35804;DHT22;21924;51.934;7.414;2022-12-18T09:17:52;-3.80;99.90
35804;DHT22;21924;51.934;7.414;2022-12-18T09:20:37;-3.80;99.90
35804;DHT22;21924;51.934;7.414;2022-12-18T09:23:22;-3.80;99.90
35804;DHT22;21924;51.934;7.414;2022-12-18T09:26:07;-3.70;99.90
35804;DHT22;21924;51.934;7.414;2022-12-18T09:28:51;-3.70;99.90
35804;DHT22;21924;51.934;7.414;2022-12-18T09:31:36;-3.60;99.90
35804;DHT22;21924;51.934;7.414;2022-12-18T09:34:21;-3.50;99.90
35804;DHT22;21924;51.934;7.414;2022-12-18T09:37:06;-3.50;99.90
35804;DHT22;21924;51.934;7.414;2022-12-18T09:39:50;-3.40;99.90
35804;DHT22;21924;51.934;7.414;2022-12-18T09:42:34;-3.40;99.90
35804;DHT22;21924;51.934;7.414;2022-12-18T09:45:19;-3.40;99.90
35804;DHT22;21924;51.934;7.414;2022-12-18T09:48:04;-3.40;99.90
35804;DHT22;21924;51.934;7.414;2022-12-18T09:50:50;-3.40;99.90
35804;DHT22;21924;51.934;7.414;2022-12-18T09:53:35;-3.30;99.90
35804;DHT22;21924;51.934;7.414;2022-12-18T09:56:22;-3.20;99.90
35804;DHT22;21924;51.934;7.414;2022-12-18T09:59:37;-3.10;99.90
35804;DHT22;21924;51.934;7.414;2022-12-18T10:02:24;-3.00;99.90
35804;DHT22;21924;51.934;7.414;2022-12-18T10:05:14;-2.90;99.90
35804;DHT22;21924;51.934;7.414;2022-12-18T10:08:08;-2.80;99.90
35804;DHT22;21924;51.934;7.414;2022-12-18T10:10:56;-2.80;99.90
35804;DHT22;21924;51.934;7.414;2022-12-18T10:13:56;-2.80;99.90
35804;DHT22;21924;51.934;7.414;2022-12-18T10:16:43;-2.70;99.90
35804;DHT22;21924;51.934;7.414;2022-12-18T10:19:46;-2.60;99.90
35804;DHT22;21924;51.934;7.414;2022-12-18T10:28:21;-2.50;99.90
35804;DHT22;21924;51.934;7.414;2022-12-18T10:31:12;-2.50;99.90
35804;DHT22;21924;51.934;7.414;2022-12-18T10:33:58;-2.50;99.90
35804;DHT22;21924;51.934;7.414;2022-12-18T10:36:42;-2.50;99.90
35804;DHT22;21924;51.934;7.414;2022-12-18T10:39:27;-2.50;99.90
35804;DHT22;21924;51.934;7.414;2022-12-18T10:42:18;-2.40;99.90
35804;DHT22;21924;51.934;7.414;2022-12-18T10:45:15;-2.40;99.90
35804;DHT22;21924;51.934;7.414;2022-12-18T10:48:00;-2.30;99.90
35804;DHT22;21924;51.934;7.414;2022-12-18T10:50:48;-2.20;99.90
35804;DHT22;21924;51.934;7.414;2022-12-18T10:53:35;-2.20;99.90
35804;DHT22;21924;51.934;7.414;2022-12-18T10:56:20;-2.00;99.90
35804;DHT22;21924;51.934;7.414;2022-12-18T10:59:07;-2.10;99.90
35804;DHT22;21924;51.934;7.414;2022-12-18T11:01:56;-2.10;99.90
35804;DHT22;21924;51.934;7.414;2022-12-18T11:04:51;-2.00;99.90
35804;DHT22;21924;51.934;7.414;2022-12-18T11:07:49;-2.00;99.90
35804;DHT22;21924;51.934;7.414;2022-12-18T11:10:37;-1.90;99.90
35804;DHT22;21924;51.934;7.414;2022-12-18T11:13:24;-1.90;99.90
35804;DHT22;21924;51.934;7.414;2022-12-18T11:16:18;-1.90;99.90
35804;DHT22;21924;51.934;7.414;2022-12-18T11:19:34;-1.90;99.90
35804;DHT22;21924;51.934;7.414;2022-12-18T11:22:28;-1.80;99.90
35804;DHT22;21924;51.934;7.414;2022-12-18T11:28:38;-1.70;99.90
35804;DHT22;21924;51.934;7.414;2022-12-18T11:31:26;-1.60;99.90
35804;DHT22;21924;51.934;7.414;2022-12-18T11:34:27;-1.60;99.90
35804;DHT22;21924;51.934;7.414;2022-12-18T11:37:13;-1.50;99.90
35804;DHT22;21924;51.934;7.414;2022-12-18T11:40:11;-1.40;99.90
35804;DHT22;21924;51.934;7.414;2022-12-18T11:43:16;-1.40;99.90
35804;DHT22;21924;51.934;7.414;2022-12-18T11:46:05;-1.50;99.90
35804;DHT22;21924;51.934;7.414;2022-12-18T11:49:13;-1.40;99.90
35804;DHT22;21924;51.934;7.414;2022-12-18T11:52:28;-1.50;99.90
35804;DHT22;21924;51.934;7.414;2022-12-18T11:58:42;-1.50;99.90
35804;DHT22;21924;51.934;7.414;2022-12-18T12:01:55;-1.40;99.90
35804;DHT22;21924;51.934;7.414;2022-12-18T12:04:59;-1.40;99.90
35804;DHT22;21924;51.934;7.414;2022-12-18T12:11:09;-1.30;99.90
35804;DHT22;21924;51.934;7.414;2022-12-18T12:17:36;-1.40;99.90
35804;DHT22;21924;51.934;7.414;2022-12-18T12:20:42;-1.30;99.90
35804;DHT22;21924;51.934;7.414;2022-12-18T12:26:38;-1.30;99.90
35804;DHT22;21924;51.934;7.414;2022-12-18T12:36:01;-1.40;99.90
35804;DHT22;21924;51.934;7.414;2022-12-18T12:39:11;-1.40;99.90
35804;DHT22;21924;51.934;7.414;2022-12-18T12:41:57;-1.40;99.90
35804;DHT22;21924;51.934;7.414;2022-12-18T12:45:04;-1.40;99.90
35804;DHT22;21924;51.934;7.414;2022-12-18T12:47:51;-1.40;99.90
35804;DHT22;21924;51.934;7.414;2022-12-18T12:50:35;-1.30;99.90
35804;DHT22;21924;51.934;7.414;2022-12-18T12:53:26;-1.30;99.90
35804;DHT22;21924;51.934;7.414;2022-12-18T12:56:15;-1.20;99.90
35804;DHT22;21924;51.934;7.414;2022-12-18T13:02:22;-1.30;99.90
35804;DHT22;21924;51.934;7.414;2022-12-18T13:08:22;-1.30;99.90
35804;DHT22;21924;51.934;7.414;2022-12-18T13:11:30;-1.30;99.90
35804;DHT22;21924;51.934;7.414;2022-12-18T13:14:36;-1.20;99.90
35804;DHT22;21924;51.934;7.414;2022-12-18T13:20:13;-1.20;99.90
35804;DHT22;21924;51.934;7.414;2022-12-18T13:22:57;-1.20;99.90
35804;DHT22;21924;51.934;7.414;2022-12-18T13:25:42;-1.10;99.90
35804;DHT22;21924;51.934;7.414;2022-12-18T13:34:28;-1.10;99.90
35804;DHT22;21924;51.934;7.414;2022-12-18T13:51:56;-1.10;99.90
35804;DHT22;21924;51.934;7.414;2022-12-18T13:54:41;-1.10;99.90
35804;DHT22;21924;51.934;7.414;2022-12-18T13:57:38;-1.10;99.90
35804;DHT22;21924;51.934;7.414;2022-12-18T14:00:31;-1.10;99.90
35804;DHT22;21924;51.934;7.414;2022-12-18T14:03:24;-1.10;99.90
35804;DHT22;21924;51.934;7.414;2022-12-18T14:06:11;-1.10;99.90
35804;DHT22;21924;51.934;7.414;2022-12-18T14:08:57;-1.10;99.90
35804;DHT22;21924;51.934;7.414;2022-12-18T14:11:46;-1.10;99.90
35804;DHT22;21924;51.934;7.414;2022-12-18T14:14:31;-1.10;99.90
35804;DHT22;21924;51.934;7.414;2022-12-18T14:17:16;-1.10;99.90
35804;DHT22;21924;51.934;7.414;2022-12-18T14:20:01;-1.10;99.90
35804;DHT22;21924;51.934;7.414;2022-12-18T14:22:46;-1.10;99.90
35804;DHT22;21924;51.934;7.414;2022-12-18T14:25:30;-1.10;99.90
35804;DHT22;21924;51.934;7.414;2022-12-18T14:28:15;-1.00;99.90
35804;DHT22;21924;51.934;7.414;2022-12-18T14:31:00;-1.10;99.90
35804;DHT22;21924;51.934;7.414;2022-12-18T14:33:45;-1.10;99.90
35804;DHT22;21924;51.934;7.414;2022-12-18T14:36:29;-1.10;99.90
35804;DHT22;21924;51.934;7.414;2022-12-18T14:39:17;-1.10;99.90
35804;DHT22;21924;51.934;7.414;2022-12-18T14:42:02;-1.10;99.90
35804;DHT22;21924;51.934;7.414;2022-12-18T14:44:46;-1.10;99.90
35804;DHT22;21924;51.934;7.414;2022-12-18T14:47:31;-1.10;99.90
35804;DHT22;21924;51.934;7.414;2022-12-18T14:50:15;-1.10;99.90
35804;DHT22;21924;51.934;7.414;2022-12-18T14:52:59;-1.10;99.90
35804;DHT22;21924;51.934;7.414;2022-12-18T14:55:46;-1.10;99.90
35804;DHT22;21924;51.934;7.414;2022-12-18T14:58:31;-1.20;99.90
35804;DHT22;21924;51.934;7.414;2022-12-18T15:01:20;-1.10;99.90
35804;DHT22;21924;51.934;7.414;2022-12-18T15:07:21;-1.10;99.90
35804;DHT22;21924;51.934;7.414;2022-12-18T15:10:15;-1.10;99.90
35804;DHT22;21924;51.934;7.414;2022-12-18T15:15:46;-1.10;99.90
35804;DHT22;21924;51.934;7.414;2022-12-18T15:18:34;-1.00;99.90
35804;DHT22;21924;51.934;7.414;2022-12-18T15:21:20;-1.00;99.90
35804;DHT22;21924;51.934;7.414;2022-12-18T15:24:17;-1.00;99.90
35804;DHT22;21924;51.934;7.414;2022-12-18T15:27:02;-1.00;99.90
35804;DHT22;21924;51.934;7.414;2022-12-18T15:30:11;-1.00;99.90
35804;DHT22;21924;51.934;7.414;2022-12-18T15:33:23;-0.90;99.90
35804;DHT22;21924;51.934;7.414;2022-12-18T15:36:11;-0.90;99.90
35804;DHT22;21924;51.934;7.414;2022-12-18T15:38:56;-0.90;99.90
35804;DHT22;21924;51.934;7.414;2022-12-18T15:41:41;-0.90;99.90
35804;DHT22;21924;51.934;7.414;2022-12-18T15:44:45;-0.90;99.90
35804;DHT22;21924;51.934;7.414;2022-12-18T15:47:30;-0.90;99.90
35804;DHT22;21924;51.934;7.414;2022-12-18T15:50:14;-0.90;99.90
35804;DHT22;21924;51.934;7.414;2022-12-18T15:52:58;-0.90;99.90
35804;DHT22;21924;51.934;7.414;2022-12-18T15:55:43;-0.90;99.90
35804;DHT22;21924;51.934;7.414;2022-12-18T15:59:18;-0.90;99.90
35804;DHT22;21924;51.934;7.414;2022-12-18T16:02:16;-0.80;99.90
35804;DHT22;21924;51.934;7.414;2022-12-18T16:05:01;-0.80;99.90
35804;DHT22;21924;51.934;7.414;2022-12-18T16:07:45;-0.80;99.90
35804;DHT22;21924;51.934;7.414;2022-12-18T16:10:29;-0.80;99.90
35804;DHT22;21924;51.934;7.414;2022-12-18T16:13:16;-0.80;99.90
35804;DHT22;21924;51.934;7.414;2022-12-18T16:16:02;-0.80;99.90
35804;DHT22;21924;51.934;7.414;2022-12-18T16:18:47;-0.70;99.90
35804;DHT22;21924;51.934;7.414;2022-12-18T16:21:31;-0.70;99.90
35804;DHT22;21924;51.934;7.414;2022-12-18T16:24:21;-0.70;99.90
35804;DHT22;21924;51.934;7.414;2022-12-18T16:27:06;-0.70;99.90
35804;DHT22;21924;51.934;7.414;2022-12-18T16:29:51;-0.70;99.90
35804;DHT22;21924;51.934;7.414;2022-12-18T16:32:35;-0.70;99.90
35804;DHT22;21924;51.934;7.414;2022-12-18T16:35:20;-0.70;99.90
35804;DHT22;21924;51.934;7.414;2022-12-18T16:38:05;-0.70;99.90
35804;DHT22;21924;51.934;7.414;2022-12-18T16:40:49;-0.70;99.90
35804;DHT22;21924;51.934;7.414;2022-12-18T16:43:53;-0.70;99.90
35804;DHT22;21924;51.934;7.414;2022-12-18T16:46:38;-0.60;99.90
35804;DHT22;21924;51.934;7.414;2022-12-18T16:49:22;-0.60;99.90
35804;DHT22;21924;51.934;7.414;2022-12-18T16:52:07;-0.60;99.90
35804;DHT22;21924;51.934;7.414;2022-12-18T16:54:51;-0.60;99.90
35804;DHT22;21924;51.934;7.414;2022-12-18T16:57:35;-0.60;99.90
35804;DHT22;21924;51.934;7.414;2022-12-18T17:00:19;-0.60;99.90
35804;DHT22;21924;51.934;7.414;2022-12-18T17:03:04;-0.60;99.90
35804;DHT22;21924;51.934;7.414;2022-12-18T17:05:48;-0.60;99.90
35804;DHT22;21924;51.934;7.414;2022-12-18T17:08:33;-0.60;99.90
35804;DHT22;21924;51.934;7.414;2022-12-18T17:11:16;-0.60;99.90
35804;DHT22;21924;51.934;7.414;2022-12-18T17:14:09;-0.60;99.90
35804;DHT22;21924;51.934;7.414;2022-12-18T17:16:54;-0.60;99.90
35804;DHT22;21924;51.934;7.414;2022-12-18T17:19:38;-0.60;99.90
35804;DHT22;21924;51.934;7.414;2022-12-18T17:22:22;-0.60;99.90
35804;DHT22;21924;51.934;7.414;2022-12-18T17:25:07;-0.60;99.90
35804;DHT22;21924;51.934;7.414;2022-12-18T17:27:51;-0.70;99.90
35804;DHT22;21924;51.934;7.414;2022-12-18T17:30:35;-0.70;99.90
35804;DHT22;21924;51.934;7.414;2022-12-18T17:33:20;-0.70;99.90
35804;DHT22;21924;51.934;7.414;2022-12-18T17:36:04;-0.70;99.90
35804;DHT22;21924;51.934;7.414;2022-12-18T17:38:53;-0.60;99.90
35804;DHT22;21924;51.934;7.414;2022-12-18T17:41:38;-0.70;99.90
35804;DHT22;21924;51.934;7.414;2022-12-18T17:44:22;-0.70;99.90
35804;DHT22;21924;51.934;7.414;2022-12-18T17:47:07;-0.70;99.90
35804;DHT22;21924;51.934;7.414;2022-12-18T17:49:55;-0.70;99.90
35804;DHT22;21924;51.934;7.414;2022-12-18T17:52:39;-0.70;99.90
35804;DHT22;21924;51.934;7.414;2022-12-18T17:55:24;-0.70;99.90
35804;DHT22;21924;51.934;7.414;2022-12-18T17:58:08;-0.70;99.90
35804;DHT22;21924;51.934;7.414;2022-12-18T18:00:52;-0.70;99.90
35804;DHT22;21924;51.934;7.414;2022-12-18T18:03:37;-0.70;99.90
35804;DHT22;21924;51.934;7.414;2022-12-18T18:06:22;-0.70;99.90
35804;DHT22;21924;51.934;7.414;2022-12-18T18:09:06;-0.70;99.90
35804;DHT22;21924;51.934;7.414;2022-12-18T18:11:51;-0.60;99.90
35804;DHT22;21924;51.934;7.414;2022-12-18T18:14:54;-0.70;99.90
35804;DHT22;21924;51.934;7.414;2022-12-18T18:17:38;-0.70;99.90
35804;DHT22;21924;51.934;7.414;2022-12-18T18:20:23;-0.70;99.90
35804;DHT22;21924;51.934;7.414;2022-12-18T18:23:07;-0.70;99.90
35804;DHT22;21924;51.934;7.414;2022-12-18T18:25:51;-0.70;99.90
35804;DHT22;21924;51.934;7.414;2022-12-18T18:28:35;-0.70;99.90
35804;DHT22;21924;51.934;7.414;2022-12-18T18:31:19;-0.60;99.90
35804;DHT22;21924;51.934;7.414;2022-12-18T18:34:04;-0.70;99.90
35804;DHT22;21924;51.934;7.414;2022-12-18T18:36:48;-0.70;99.90
35804;DHT22;21924;51.934;7.414;2022-12-18T18:39:32;-0.70;99.90
35804;DHT22;21924;51.934;7.414;2022-12-18T18:42:16;-0.70;99.90
35804;DHT22;21924;51.934;7.414;2022-12-18T18:45:01;-0.60;99.90
35804;DHT22;21924;51.934;7.414;2022-12-18T18:47:45;-0.60;99.90
35804;DHT22;21924;51.934;7.414;2022-12-18T18:50:29;-0.60;99.90
35804;DHT22;21924;51.934;7.414;2022-12-18T18:53:13;-0.60;99.90
35804;DHT22;21924;51.934;7.414;2022-12-18T18:55:58;-0.70;99.90
35804;DHT22;21924;51.934;7.414;2022-12-18T18:58:45;-0.70;99.90